sensor_id;sensor_type;location;lat;lon;timestamp;P1;durP1;ratioP1;P2;durP2;ratioP2
32297;SDS011;18782;48.984;8.548;2022-07-22T00:01:01;5.22;;;4.55;;
32297;SDS011;18782;48.984;8.548;2022-07-22T00:03:29;5.80;;;5.00;;
32297;SDS011;18782;48.984;8.548;2022-07-22T00:05:57;5.97;;;4.93;;
32297;SDS011;18782;48.984;8.548;2022-07-22T00:08:25;6.35;;;4.22;;
32297;SDS011;18782;48.984;8.548;2022-07-22T00:10:52;4.72;;;4.32;;
32297;SDS011;18782;48.984;8.548;2022-07-22T00:13:20;5.65;;;5.15;;
32297;SDS011;18782;48.984;8.548;2022-07-22T00:15:47;6.00;;;5.30;;
32297;SDS011;18782;48.984;8.548;2022-07-22T00:18:17;5.78;;;5.10;;
32297;SDS011;18782;48.984;8.548;2022-07-22T00:20:44;6.03;;;5.15;;
32297;SDS011;18782;48.984;8.548;2022-07-22T00:23:12;5.40;;;4.80;;
32297;SDS011;18782;48.984;8.548;2022-07-22T00:25:40;7.05;;;4.63;;
32297;SDS011;18782;48.984;8.548;2022-07-22T00:28:08;5.20;;;4.70;;
32297;SDS011;18782;48.984;8.548;2022-07-22T00:30:35;5.38;;;4.82;;
32297;SDS011;18782;48.984;8.548;2022-07-22T00:33:03;6.63;;;4.80;;
32297;SDS011;18782;48.984;8.548;2022-07-22T00:35:32;6.32;;;4.80;;
32297;SDS011;18782;48.984;8.548;2022-07-22T00:38:08;5.85;;;4.80;;
32297;SDS011;18782;48.984;8.548;2022-07-22T00:40:36;4.97;;;4.15;;
32297;SDS011;18782;48.984;8.548;2022-07-22T00:43:03;5.28;;;4.65;;
32297;SDS011;18782;48.984;8.548;2022-07-22T00:45:31;5.57;;;4.57;;
32297;SDS011;18782;48.984;8.548;2022-07-22T00:47:59;5.68;;;4.80;;
32297;SDS011;18782;48.984;8.548;2022-07-22T00:50:27;5.70;;;4.72;;
32297;SDS011;18782;48.984;8.548;2022-07-22T00:52:57;5.63;;;4.80;;
32297;SDS011;18782;48.984;8.548;2022-07-22T00:55:24;9.63;;;6.93;;
32297;SDS011;18782;48.984;8.548;2022-07-22T00:57:52;5.85;;;5.32;;
32297;SDS011;18782;48.984;8.548;2022-07-22T01:00:20;7.70;;;6.00;;
32297;SDS011;18782;48.984;8.548;2022-07-22T01:02:50;5.60;;;5.00;;
32297;SDS011;18782;48.984;8.548;2022-07-22T01:05:17;6.57;;;5.22;;
32297;SDS011;18782;48.984;8.548;2022-07-22T01:07:45;7.05;;;5.25;;
32297;SDS011;18782;48.984;8.548;2022-07-22T01:10:15;7.72;;;5.50;;
32297;SDS011;18782;48.984;8.548;2022-07-22T01:12:43;5.47;;;4.78;;
32297;SDS011;18782;48.984;8.548;2022-07-22T01:15:11;6.05;;;4.82;;
32297;SDS011;18782;48.984;8.548;2022-07-22T01:17:38;7.95;;;5.10;;
32297;SDS011;18782;48.984;8.548;2022-07-22T01:20:08;5.88;;;4.93;;
32297;SDS011;18782;48.984;8.548;2022-07-22T01:22:36;6.13;;;4.88;;
32297;SDS011;18782;48.984;8.548;2022-07-22T01:25:04;5.97;;;5.38;;
32297;SDS011;18782;48.984;8.548;2022-07-22T01:27:33;5.85;;;5.10;;
32297;SDS011;18782;48.984;8.548;2022-07-22T01:30:01;6.05;;;4.97;;
32297;SDS011;18782;48.984;8.548;2022-07-22T01:32:29;5.07;;;4.57;;
32297;SDS011;18782;48.984;8.548;2022-07-22T01:34:57;6.90;;;5.07;;
32297;SDS011;18782;48.984;8.548;2022-07-22T01:37:26;6.25;;;5.53;;
32297;SDS011;18782;48.984;8.548;2022-07-22T01:39:54;7.10;;;5.28;;
32297;SDS011;18782;48.984;8.548;2022-07-22T01:42:22;5.90;;;5.30;;
32297;SDS011;18782;48.984;8.548;2022-07-22T01:44:52;8.88;;;5.53;;
32297;SDS011;18782;48.984;8.548;2022-07-22T01:47:20;6.70;;;5.00;;
32297;SDS011;18782;48.984;8.548;2022-07-22T01:49:48;6.75;;;5.40;;
32297;SDS011;18782;48.984;8.548;2022-07-22T01:52:16;6.18;;;5.40;;
32297;SDS011;18782;48.984;8.548;2022-07-22T01:54:45;10.32;;;5.60;;
32297;SDS011;18782;48.984;8.548;2022-07-22T01:57:13;7.03;;;6.13;;
32297;SDS011;18782;48.984;8.548;2022-07-22T01:59:46;5.28;;;4.80;;
32297;SDS011;18782;48.984;8.548;2022-07-22T02:02:14;6.35;;;5.60;;
32297;SDS011;18782;48.984;8.548;2022-07-22T02:04:43;6.68;;;5.60;;
32297;SDS011;18782;48.984;8.548;2022-07-22T02:07:11;6.28;;;5.20;;
32297;SDS011;18782;48.984;8.548;2022-07-22T02:09:38;6.22;;;5.05;;
32297;SDS011;18782;48.984;8.548;2022-07-22T02:12:08;6.18;;;5.15;;
32297;SDS011;18782;48.984;8.548;2022-07-22T02:14:42;7.38;;;5.78;;
32297;SDS011;18782;48.984;8.548;2022-07-22T02:17:10;5.45;;;4.95;;
32297;SDS011;18782;48.984;8.548;2022-07-22T02:19:38;6.00;;;5.40;;
32297;SDS011;18782;48.984;8.548;2022-07-22T02:22:06;6.30;;;5.60;;
32297;SDS011;18782;48.984;8.548;2022-07-22T02:24:36;6.00;;;5.40;;
32297;SDS011;18782;48.984;8.548;2022-07-22T02:27:04;8.55;;;5.88;;
32297;SDS011;18782;48.984;8.548;2022-07-22T02:29:33;9.05;;;6.32;;
32297;SDS011;18782;48.984;8.548;2022-07-22T02:32:01;5.72;;;5.18;;
32297;SDS011;18782;48.984;8.548;2022-07-22T02:34:29;11.65;;;9.10;;
32297;SDS011;18782;48.984;8.548;2022-07-22T02:36:57;8.07;;;6.88;;
32297;SDS011;18782;48.984;8.548;2022-07-22T02:39:25;7.97;;;6.40;;
32297;SDS011;18782;48.984;8.548;2022-07-22T02:41:53;6.80;;;5.45;;
32297;SDS011;18782;48.984;8.548;2022-07-22T02:44:21;7.03;;;6.32;;
32297;SDS011;18782;48.984;8.548;2022-07-22T02:46:50;8.70;;;6.68;;
32297;SDS011;18782;48.984;8.548;2022-07-22T02:49:24;7.25;;;6.55;;
32297;SDS011;18782;48.984;8.548;2022-07-22T02:51:54;6.82;;;5.43;;
32297;SDS011;18782;48.984;8.548;2022-07-22T02:54:21;6.85;;;5.57;;
32297;SDS011;18782;48.984;8.548;2022-07-22T02:56:49;8.23;;;5.57;;
32297;SDS011;18782;48.984;8.548;2022-07-22T02:59:17;6.68;;;5.75;;
32297;SDS011;18782;48.984;8.548;2022-07-22T03:01:45;6.85;;;5.53;;
32297;SDS011;18782;48.984;8.548;2022-07-22T03:04:14;7.63;;;5.40;;
32297;SDS011;18782;48.984;8.548;2022-07-22T03:06:42;6.63;;;6.03;;
32297;SDS011;18782;48.984;8.548;2022-07-22T03:09:14;6.50;;;5.55;;
32297;SDS011;18782;48.984;8.548;2022-07-22T03:11:43;5.93;;;5.40;;
32297;SDS011;18782;48.984;8.548;2022-07-22T03:14:11;6.55;;;5.53;;
32297;SDS011;18782;48.984;8.548;2022-07-22T03:16:39;6.32;;;5.72;;
32297;SDS011;18782;48.984;8.548;2022-07-22T03:19:07;7.97;;;5.45;;
32297;SDS011;18782;48.984;8.548;2022-07-22T03:21:36;6.15;;;5.53;;
32297;SDS011;18782;48.984;8.548;2022-07-22T03:24:04;6.63;;;5.88;;
32297;SDS011;18782;48.984;8.548;2022-07-22T03:26:32;6.80;;;5.55;;
32297;SDS011;18782;48.984;8.548;2022-07-22T03:29:00;6.00;;;5.40;;
32297;SDS011;18782;48.984;8.548;2022-07-22T03:31:28;6.68;;;5.95;;
32297;SDS011;18782;48.984;8.548;2022-07-22T03:33:56;7.65;;;5.72;;
32297;SDS011;18782;48.984;8.548;2022-07-22T03:36:27;6.88;;;6.13;;
32297;SDS011;18782;48.984;8.548;2022-07-22T03:38:57;5.85;;;5.03;;
32297;SDS011;18782;48.984;8.548;2022-07-22T03:41:25;6.13;;;5.25;;
32297;SDS011;18782;48.984;8.548;2022-07-22T03:43:53;7.85;;;5.45;;
32297;SDS011;18782;48.984;8.548;2022-07-22T03:46:21;8.02;;;5.65;;
32297;SDS011;18782;48.984;8.548;2022-07-22T03:48:49;6.90;;;6.03;;
32297;SDS011;18782;48.984;8.548;2022-07-22T03:51:18;6.80;;;5.35;;
32297;SDS011;18782;48.984;8.548;2022-07-22T03:53:46;6.35;;;5.53;;
32297;SDS011;18782;48.984;8.548;2022-07-22T03:56:15;8.60;;;5.57;;
32297;SDS011;18782;48.984;8.548;2022-07-22T03:58:43;8.48;;;5.63;;
32297;SDS011;18782;48.984;8.548;2022-07-22T04:01:11;7.32;;;5.45;;
32297;SDS011;18782;48.984;8.548;2022-07-22T04:03:40;7.07;;;5.25;;
32297;SDS011;18782;48.984;8.548;2022-07-22T04:06:28;6.00;;;5.40;;
32297;SDS011;18782;48.984;8.548;2022-07-22T04:09:01;6.38;;;5.78;;
32297;SDS011;18782;48.984;8.548;2022-07-22T04:11:30;6.53;;;5.78;;
32297;SDS011;18782;48.984;8.548;2022-07-22T04:13:57;6.47;;;5.72;;
32297;SDS011;18782;48.984;8.548;2022-07-22T04:16:26;8.60;;;5.47;;
32297;SDS011;18782;48.984;8.548;2022-07-22T04:18:59;6.97;;;5.88;;
32297;SDS011;18782;48.984;8.548;2022-07-22T04:21:40;7.95;;;6.25;;
32297;SDS011;18782;48.984;8.548;2022-07-22T04:24:09;8.68;;;6.93;;
32297;SDS011;18782;48.984;8.548;2022-07-22T04:26:38;6.15;;;5.50;;
32297;SDS011;18782;48.984;8.548;2022-07-22T04:29:06;8.57;;;6.45;;
32297;SDS011;18782;48.984;8.548;2022-07-22T04:31:34;6.72;;;6.05;;
32297;SDS011;18782;48.984;8.548;2022-07-22T04:34:06;7.50;;;6.05;;
32297;SDS011;18782;48.984;8.548;2022-07-22T04:36:34;7.45;;;6.38;;
32297;SDS011;18782;48.984;8.548;2022-07-22T04:39:02;7.20;;;6.45;;
32297;SDS011;18782;48.984;8.548;2022-07-22T04:41:31;6.18;;;5.68;;
32297;SDS011;18782;48.984;8.548;2022-07-22T04:44:01;7.18;;;6.45;;
32297;SDS011;18782;48.984;8.548;2022-07-22T04:46:31;6.55;;;5.93;;
32297;SDS011;18782;48.984;8.548;2022-07-22T04:48:59;7.72;;;6.82;;
32297;SDS011;18782;48.984;8.548;2022-07-22T04:51:27;6.53;;;5.93;;
32297;SDS011;18782;48.984;8.548;2022-07-22T04:54:01;7.32;;;6.63;;
32297;SDS011;18782;48.984;8.548;2022-07-22T04:56:34;8.70;;;7.43;;
32297;SDS011;18782;48.984;8.548;2022-07-22T04:59:04;8.23;;;6.00;;
32297;SDS011;18782;48.984;8.548;2022-07-22T05:01:32;8.18;;;6.70;;
32297;SDS011;18782;48.984;8.548;2022-07-22T05:04:01;9.10;;;7.32;;
32297;SDS011;18782;48.984;8.548;2022-07-22T05:06:29;7.65;;;6.20;;
32297;SDS011;18782;48.984;8.548;2022-07-22T05:08:56;10.30;;;6.32;;
32297;SDS011;18782;48.984;8.548;2022-07-22T05:11:28;6.93;;;6.03;;
32297;SDS011;18782;48.984;8.548;2022-07-22T05:13:56;6.90;;;6.15;;
32297;SDS011;18782;48.984;8.548;2022-07-22T05:16:25;7.90;;;6.45;;
32297;SDS011;18782;48.984;8.548;2022-07-22T05:18:53;6.45;;;5.85;;
32297;SDS011;18782;48.984;8.548;2022-07-22T05:21:22;8.23;;;6.05;;
32297;SDS011;18782;48.984;8.548;2022-07-22T05:23:49;7.55;;;6.75;;
32297;SDS011;18782;48.984;8.548;2022-07-22T05:26:17;9.50;;;8.23;;
32297;SDS011;18782;48.984;8.548;2022-07-22T05:28:46;8.45;;;7.00;;
32297;SDS011;18782;48.984;8.548;2022-07-22T05:31:13;7.65;;;6.72;;
32297;SDS011;18782;48.984;8.548;2022-07-22T05:33:42;9.55;;;7.93;;
32297;SDS011;18782;48.984;8.548;2022-07-22T05:36:31;9.10;;;8.20;;
32297;SDS011;18782;48.984;8.548;2022-07-22T05:38:59;6.97;;;6.30;;
32297;SDS011;18782;48.984;8.548;2022-07-22T05:41:27;9.25;;;6.72;;
32297;SDS011;18782;48.984;8.548;2022-07-22T05:43:55;6.35;;;5.75;;
32297;SDS011;18782;48.984;8.548;2022-07-22T05:46:23;7.75;;;6.18;;
32297;SDS011;18782;48.984;8.548;2022-07-22T05:48:52;6.80;;;6.10;;
32297;SDS011;18782;48.984;8.548;2022-07-22T05:51:22;6.53;;;5.88;;
32297;SDS011;18782;48.984;8.548;2022-07-22T05:53:49;6.22;;;5.43;;
32297;SDS011;18782;48.984;8.548;2022-07-22T05:56:17;7.15;;;5.97;;
32297;SDS011;18782;48.984;8.548;2022-07-22T05:58:46;6.88;;;5.60;;
32297;SDS011;18782;48.984;8.548;2022-07-22T06:01:14;7.10;;;6.30;;
32297;SDS011;18782;48.984;8.548;2022-07-22T06:03:42;8.20;;;6.05;;
32297;SDS011;18782;48.984;8.548;2022-07-22T06:06:14;7.28;;;6.55;;
32297;SDS011;18782;48.984;8.548;2022-07-22T06:08:43;6.15;;;5.47;;
32297;SDS011;18782;48.984;8.548;2022-07-22T06:11:18;8.02;;;5.70;;
32297;SDS011;18782;48.984;8.548;2022-07-22T06:13:46;8.57;;;5.90;;
32297;SDS011;18782;48.984;8.548;2022-07-22T06:16:14;8.88;;;5.70;;
32297;SDS011;18782;48.984;8.548;2022-07-22T06:18:42;6.55;;;5.53;;
32297;SDS011;18782;48.984;8.548;2022-07-22T06:21:10;9.57;;;6.13;;
32297;SDS011;18782;48.984;8.548;2022-07-22T06:23:40;8.75;;;6.90;;
32297;SDS011;18782;48.984;8.548;2022-07-22T06:26:08;7.55;;;6.13;;
32297;SDS011;18782;48.984;8.548;2022-07-22T06:28:36;8.15;;;6.45;;
32297;SDS011;18782;48.984;8.548;2022-07-22T06:31:04;13.13;;;8.13;;
32297;SDS011;18782;48.984;8.548;2022-07-22T06:33:32;9.02;;;7.38;;
32297;SDS011;18782;48.984;8.548;2022-07-22T06:36:00;10.40;;;6.88;;
32297;SDS011;18782;48.984;8.548;2022-07-22T06:38:30;9.43;;;6.93;;
32297;SDS011;18782;48.984;8.548;2022-07-22T06:41:20;10.02;;;7.30;;
32297;SDS011;18782;48.984;8.548;2022-07-22T06:44:13;7.70;;;6.97;;
32297;SDS011;18782;48.984;8.548;2022-07-22T06:47:16;9.70;;;7.20;;
32297;SDS011;18782;48.984;8.548;2022-07-22T06:49:44;11.93;;;7.28;;
32297;SDS011;18782;48.984;8.548;2022-07-22T06:52:13;7.72;;;6.53;;
32297;SDS011;18782;48.984;8.548;2022-07-22T06:54:40;10.10;;;7.03;;
32297;SDS011;18782;48.984;8.548;2022-07-22T06:57:14;7.95;;;7.07;;
32297;SDS011;18782;48.984;8.548;2022-07-22T06:59:42;8.00;;;7.07;;
32297;SDS011;18782;48.984;8.548;2022-07-22T07:02:10;9.00;;;6.95;;
32297;SDS011;18782;48.984;8.548;2022-07-22T07:04:37;10.55;;;6.43;;
32297;SDS011;18782;48.984;8.548;2022-07-22T07:07:06;7.45;;;6.55;;
32297;SDS011;18782;48.984;8.548;2022-07-22T07:09:53;11.25;;;7.10;;
32297;SDS011;18782;48.984;8.548;2022-07-22T07:12:33;7.88;;;6.93;;
32297;SDS011;18782;48.984;8.548;2022-07-22T07:17:55;9.30;;;7.65;;
32297;SDS011;18782;48.984;8.548;2022-07-22T07:20:24;9.68;;;7.43;;
32297;SDS011;18782;48.984;8.548;2022-07-22T07:22:52;12.02;;;7.10;;
32297;SDS011;18782;48.984;8.548;2022-07-22T07:25:22;8.45;;;6.80;;
32297;SDS011;18782;48.984;8.548;2022-07-22T07:27:54;10.00;;;6.95;;
32297;SDS011;18782;48.984;8.548;2022-07-22T07:30:40;8.75;;;6.20;;
32297;SDS011;18782;48.984;8.548;2022-07-22T07:33:08;8.57;;;6.68;;
32297;SDS011;18782;48.984;8.548;2022-07-22T07:35:37;11.85;;;6.95;;
32297;SDS011;18782;48.984;8.548;2022-07-22T07:38:06;7.65;;;6.03;;
32297;SDS011;18782;48.984;8.548;2022-07-22T07:40:37;6.60;;;5.55;;
32297;SDS011;18782;48.984;8.548;2022-07-22T07:43:06;8.27;;;6.45;;
32297;SDS011;18782;48.984;8.548;2022-07-22T07:45:34;8.50;;;6.85;;
32297;SDS011;18782;48.984;8.548;2022-07-22T07:48:03;6.57;;;5.88;;
32297;SDS011;18782;48.984;8.548;2022-07-22T07:50:31;9.32;;;6.05;;
32297;SDS011;18782;48.984;8.548;2022-07-22T07:52:59;5.95;;;5.38;;
32297;SDS011;18782;48.984;8.548;2022-07-22T07:55:27;6.20;;;5.60;;
32297;SDS011;18782;48.984;8.548;2022-07-22T07:57:56;5.93;;;5.43;;
32297;SDS011;18782;48.984;8.548;2022-07-22T08:00:26;6.40;;;5.80;;
32297;SDS011;18782;48.984;8.548;2022-07-22T08:02:55;7.32;;;6.28;;
32297;SDS011;18782;48.984;8.548;2022-07-22T08:05:26;8.63;;;6.00;;
32297;SDS011;18782;48.984;8.548;2022-07-22T08:07:57;7.30;;;5.78;;
32297;SDS011;18782;48.984;8.548;2022-07-22T08:10:25;6.20;;;5.53;;
32297;SDS011;18782;48.984;8.548;2022-07-22T08:13:31;6.13;;;5.50;;
32297;SDS011;18782;48.984;8.548;2022-07-22T08:16:20;7.30;;;6.07;;
32297;SDS011;18782;48.984;8.548;2022-07-22T08:18:48;7.88;;;6.18;;
32297;SDS011;18782;48.984;8.548;2022-07-22T08:21:16;7.00;;;5.72;;
32297;SDS011;18782;48.984;8.548;2022-07-22T08:23:59;6.28;;;5.60;;
32297;SDS011;18782;48.984;8.548;2022-07-22T08:26:27;8.27;;;6.22;;
32297;SDS011;18782;48.984;8.548;2022-07-22T08:28:59;6.33;;;5.70;;
32297;SDS011;18782;48.984;8.548;2022-07-22T08:31:30;7.15;;;6.35;;
32297;SDS011;18782;48.984;8.548;2022-07-22T08:34:05;6.78;;;6.07;;
32297;SDS011;18782;48.984;8.548;2022-07-22T08:36:33;7.07;;;6.03;;
32297;SDS011;18782;48.984;8.548;2022-07-22T08:39:01;6.80;;;6.10;;
32297;SDS011;18782;48.984;8.548;2022-07-22T08:41:32;8.38;;;5.75;;
32297;SDS011;18782;48.984;8.548;2022-07-22T08:44:03;7.38;;;6.68;;
32297;SDS011;18782;48.984;8.548;2022-07-22T08:46:33;6.20;;;5.60;;
32297;SDS011;18782;48.984;8.548;2022-07-22T08:49:17;6.55;;;5.57;;
32297;SDS011;18782;48.984;8.548;2022-07-22T08:52:13;7.13;;;5.82;;
32297;SDS011;18782;48.984;8.548;2022-07-22T08:54:46;7.72;;;5.68;;
32297;SDS011;18782;48.984;8.548;2022-07-22T08:57:17;7.10;;;6.40;;
32297;SDS011;18782;48.984;8.548;2022-07-22T08:59:48;7.28;;;6.07;;
32297;SDS011;18782;48.984;8.548;2022-07-22T09:02:18;6.95;;;5.63;;
32297;SDS011;18782;48.984;8.548;2022-07-22T09:04:51;7.55;;;5.75;;
32297;SDS011;18782;48.984;8.548;2022-07-22T09:07:25;6.68;;;5.55;;
32297;SDS011;18782;48.984;8.548;2022-07-22T09:09:58;6.35;;;5.32;;
32297;SDS011;18782;48.984;8.548;2022-07-22T09:13:02;6.57;;;5.38;;
32297;SDS011;18782;48.984;8.548;2022-07-22T09:15:47;5.75;;;5.15;;
32297;SDS011;18782;48.984;8.548;2022-07-22T09:18:45;7.97;;;5.95;;
32297;SDS011;18782;48.984;8.548;2022-07-22T09:21:37;8.27;;;6.00;;
32297;SDS011;18782;48.984;8.548;2022-07-22T09:24:09;6.10;;;5.38;;
32297;SDS011;18782;48.984;8.548;2022-07-22T09:26:55;6.60;;;5.50;;
32297;SDS011;18782;48.984;8.548;2022-07-22T09:29:31;5.57;;;5.03;;
32297;SDS011;18782;48.984;8.548;2022-07-22T09:32:16;6.40;;;5.18;;
32297;SDS011;18782;48.984;8.548;2022-07-22T09:34:51;8.13;;;5.88;;
32297;SDS011;18782;48.984;8.548;2022-07-22T09:37:32;5.75;;;5.20;;
32297;SDS011;18782;48.984;8.548;2022-07-22T09:40:13;6.50;;;5.10;;
32297;SDS011;18782;48.984;8.548;2022-07-22T09:42:43;7.63;;;6.82;;
32297;SDS011;18782;48.984;8.548;2022-07-22T09:45:13;6.43;;;5.57;;
32297;SDS011;18782;48.984;8.548;2022-07-22T09:47:41;6.10;;;5.20;;
32297;SDS011;18782;48.984;8.548;2022-07-22T09:50:31;8.90;;;5.60;;
32297;SDS011;18782;48.984;8.548;2022-07-22T09:53:15;6.00;;;5.40;;
32297;SDS011;18782;48.984;8.548;2022-07-22T09:55:56;6.60;;;5.45;;
32297;SDS011;18782;48.984;8.548;2022-07-22T09:58:25;6.03;;;5.40;;
32297;SDS011;18782;48.984;8.548;2022-07-22T10:00:54;6.00;;;5.00;;
32297;SDS011;18782;48.984;8.548;2022-07-22T10:03:27;7.03;;;5.50;;
32297;SDS011;18782;48.984;8.548;2022-07-22T10:06:00;6.18;;;5.18;;
32297;SDS011;18782;48.984;8.548;2022-07-22T10:08:30;7.28;;;5.05;;
32297;SDS011;18782;48.984;8.548;2022-07-22T10:10:59;5.20;;;4.65;;
32297;SDS011;18782;48.984;8.548;2022-07-22T10:13:29;5.75;;;5.18;;
32297;SDS011;18782;48.984;8.548;2022-07-22T10:15:57;6.25;;;4.95;;
32297;SDS011;18782;48.984;8.548;2022-07-22T10:18:26;5.70;;;5.00;;
32297;SDS011;18782;48.984;8.548;2022-07-22T10:21:01;6.25;;;5.43;;
32297;SDS011;18782;48.984;8.548;2022-07-22T10:23:30;6.15;;;5.30;;
32297;SDS011;18782;48.984;8.548;2022-07-22T10:25:59;5.88;;;5.15;;
32297;SDS011;18782;48.984;8.548;2022-07-22T10:28:30;6.75;;;5.15;;
32297;SDS011;18782;48.984;8.548;2022-07-22T10:31:18;5.70;;;5.20;;
32297;SDS011;18782;48.984;8.548;2022-07-22T10:33:49;5.78;;;5.18;;
32297;SDS011;18782;48.984;8.548;2022-07-22T10:36:33;6.32;;;5.72;;
32297;SDS011;18782;48.984;8.548;2022-07-22T10:39:04;5.93;;;4.90;;
32297;SDS011;18782;48.984;8.548;2022-07-22T10:41:34;6.03;;;4.97;;
32297;SDS011;18782;48.984;8.548;2022-07-22T10:44:03;5.60;;;5.07;;
32297;SDS011;18782;48.984;8.548;2022-07-22T10:46:47;9.65;;;6.18;;
32297;SDS011;18782;48.984;8.548;2022-07-22T10:49:18;7.95;;;5.47;;
32297;SDS011;18782;48.984;8.548;2022-07-22T10:57:44;6.13;;;5.07;;
32297;SDS011;18782;48.984;8.548;2022-07-22T11:00:12;6.00;;;5.40;;
32297;SDS011;18782;48.984;8.548;2022-07-22T11:02:40;6.03;;;5.53;;
32297;SDS011;18782;48.984;8.548;2022-07-22T11:05:08;5.82;;;5.22;;
32297;SDS011;18782;48.984;8.548;2022-07-22T11:07:41;6.65;;;5.13;;
32297;SDS011;18782;48.984;8.548;2022-07-22T11:10:09;7.35;;;4.78;;
32297;SDS011;18782;48.984;8.548;2022-07-22T11:12:44;7.00;;;5.20;;
32297;SDS011;18782;48.984;8.548;2022-07-22T11:15:12;7.70;;;5.32;;
32297;SDS011;18782;48.984;8.548;2022-07-22T11:17:40;6.03;;;4.70;;
32297;SDS011;18782;48.984;8.548;2022-07-22T11:20:08;6.30;;;5.55;;
32297;SDS011;18782;48.984;8.548;2022-07-22T11:22:38;7.80;;;5.85;;
32297;SDS011;18782;48.984;8.548;2022-07-22T11:25:09;5.80;;;5.20;;
32297;SDS011;18782;48.984;8.548;2022-07-22T11:27:38;6.45;;;5.50;;
32297;SDS011;18782;48.984;8.548;2022-07-22T11:30:06;4.70;;;4.30;;
32297;SDS011;18782;48.984;8.548;2022-07-22T11:32:40;5.72;;;5.22;;
32297;SDS011;18782;48.984;8.548;2022-07-22T11:35:10;7.03;;;5.30;;
32297;SDS011;18782;48.984;8.548;2022-07-22T11:37:39;7.00;;;4.97;;
32297;SDS011;18782;48.984;8.548;2022-07-22T11:40:09;5.85;;;5.00;;
32297;SDS011;18782;48.984;8.548;2022-07-22T11:42:38;5.10;;;4.28;;
32297;SDS011;18782;48.984;8.548;2022-07-22T11:45:06;6.82;;;5.47;;
32297;SDS011;18782;48.984;8.548;2022-07-22T11:47:34;6.57;;;5.97;;
32297;SDS011;18782;48.984;8.548;2022-07-22T11:50:02;8.93;;;4.88;;
32297;SDS011;18782;48.984;8.548;2022-07-22T11:52:30;5.63;;;4.30;;
32297;SDS011;18782;48.984;8.548;2022-07-22T11:55:00;6.07;;;4.88;;
32297;SDS011;18782;48.984;8.548;2022-07-22T11:57:39;4.85;;;4.43;;
32297;SDS011;18782;48.984;8.548;2022-07-22T12:00:48;7.05;;;5.60;;
32297;SDS011;18782;48.984;8.548;2022-07-22T12:03:16;6.55;;;4.45;;
32297;SDS011;18782;48.984;8.548;2022-07-22T12:05:44;4.95;;;4.45;;
32297;SDS011;18782;48.984;8.548;2022-07-22T12:08:12;6.70;;;4.47;;
32297;SDS011;18782;48.984;8.548;2022-07-22T12:10:41;5.22;;;4.72;;
32297;SDS011;18782;48.984;8.548;2022-07-22T12:13:11;5.63;;;4.80;;
32297;SDS011;18782;48.984;8.548;2022-07-22T12:15:39;5.32;;;4.80;;
32297;SDS011;18782;48.984;8.548;2022-07-22T12:18:18;5.65;;;4.45;;
32297;SDS011;18782;48.984;8.548;2022-07-22T12:20:48;6.75;;;4.60;;
32297;SDS011;18782;48.984;8.548;2022-07-22T12:23:20;5.63;;;4.28;;
32297;SDS011;18782;48.984;8.548;2022-07-22T12:25:52;7.00;;;4.72;;
32297;SDS011;18782;48.984;8.548;2022-07-22T12:28:22;5.93;;;4.38;;
32297;SDS011;18782;48.984;8.548;2022-07-22T12:30:51;5.03;;;4.22;;
32297;SDS011;18782;48.984;8.548;2022-07-22T12:33:21;4.78;;;4.28;;
32297;SDS011;18782;48.984;8.548;2022-07-22T12:35:59;4.75;;;4.10;;
32297;SDS011;18782;48.984;8.548;2022-07-22T12:38:31;5.97;;;4.15;;
32297;SDS011;18782;48.984;8.548;2022-07-22T12:43:52;5.38;;;4.63;;
32297;SDS011;18782;48.984;8.548;2022-07-22T12:46:21;6.53;;;4.18;;
32297;SDS011;18782;48.984;8.548;2022-07-22T12:48:52;6.40;;;4.10;;
32297;SDS011;18782;48.984;8.548;2022-07-22T12:51:24;4.40;;;4.00;;
32297;SDS011;18782;48.984;8.548;2022-07-22T12:53:51;4.68;;;4.28;;
32297;SDS011;18782;48.984;8.548;2022-07-22T12:56:20;4.70;;;4.30;;
32297;SDS011;18782;48.984;8.548;2022-07-22T12:58:48;4.95;;;4.45;;
32297;SDS011;18782;48.984;8.548;2022-07-22T13:01:17;5.57;;;5.00;;
32297;SDS011;18782;48.984;8.548;2022-07-22T13:03:45;4.63;;;3.85;;
32297;SDS011;18782;48.984;8.548;2022-07-22T13:06:12;5.95;;;4.25;;
32297;SDS011;18782;48.984;8.548;2022-07-22T13:08:41;4.72;;;4.25;;
32297;SDS011;18782;48.984;8.548;2022-07-22T13:11:12;6.47;;;3.50;;
32297;SDS011;18782;48.984;8.548;2022-07-22T13:13:40;6.00;;;4.18;;
32297;SDS011;18782;48.984;8.548;2022-07-22T13:16:11;6.45;;;5.05;;
32297;SDS011;18782;48.984;8.548;2022-07-22T13:18:40;5.60;;;3.42;;
32297;SDS011;18782;48.984;8.548;2022-07-22T13:21:08;4.68;;;4.28;;
32297;SDS011;18782;48.984;8.548;2022-07-22T13:23:36;4.10;;;3.70;;
32297;SDS011;18782;48.984;8.548;2022-07-22T13:26:04;5.10;;;3.95;;
32297;SDS011;18782;48.984;8.548;2022-07-22T13:28:32;9.45;;;3.90;;
32297;SDS011;18782;48.984;8.548;2022-07-22T13:31:00;5.15;;;4.28;;
32297;SDS011;18782;48.984;8.548;2022-07-22T13:33:27;4.20;;;3.78;;
32297;SDS011;18782;48.984;8.548;2022-07-22T13:35:56;3.80;;;3.50;;
32297;SDS011;18782;48.984;8.548;2022-07-22T13:38:24;4.25;;;3.78;;
32297;SDS011;18782;48.984;8.548;2022-07-22T13:40:52;3.33;;;3.13;;
32297;SDS011;18782;48.984;8.548;2022-07-22T13:43:19;3.97;;;3.63;;
32297;SDS011;18782;48.984;8.548;2022-07-22T13:45:49;5.68;;;3.83;;
32297;SDS011;18782;48.984;8.548;2022-07-22T13:48:17;4.75;;;3.60;;
32297;SDS011;18782;48.984;8.548;2022-07-22T13:50:46;4.30;;;3.60;;
32297;SDS011;18782;48.984;8.548;2022-07-22T13:53:16;4.45;;;3.40;;
32297;SDS011;18782;48.984;8.548;2022-07-22T13:55:43;5.13;;;3.72;;
32297;SDS011;18782;48.984;8.548;2022-07-22T13:58:11;4.07;;;3.70;;
32297;SDS011;18782;48.984;8.548;2022-07-22T14:00:39;4.63;;;3.70;;
32297;SDS011;18782;48.984;8.548;2022-07-22T14:03:07;4.10;;;3.72;;
32297;SDS011;18782;48.984;8.548;2022-07-22T14:05:35;4.97;;;3.63;;
32297;SDS011;18782;48.984;8.548;2022-07-22T14:08:03;4.75;;;3.42;;
32297;SDS011;18782;48.984;8.548;2022-07-22T14:10:32;5.13;;;4.05;;
32297;SDS011;18782;48.984;8.548;2022-07-22T14:13:00;3.70;;;3.40;;
32297;SDS011;18782;48.984;8.548;2022-07-22T14:15:28;4.93;;;3.42;;
32297;SDS011;18782;48.984;8.548;2022-07-22T14:17:56;3.90;;;3.60;;
32297;SDS011;18782;48.984;8.548;2022-07-22T14:20:23;3.80;;;3.50;;
32297;SDS011;18782;48.984;8.548;2022-07-22T14:22:51;4.40;;;4.00;;
32297;SDS011;18782;48.984;8.548;2022-07-22T14:25:18;5.80;;;3.92;;
32297;SDS011;18782;48.984;8.548;2022-07-22T14:27:48;4.03;;;3.58;;
32297;SDS011;18782;48.984;8.548;2022-07-22T14:30:35;4.05;;;3.65;;
32297;SDS011;18782;48.984;8.548;2022-07-22T14:33:04;4.57;;;4.00;;
32297;SDS011;18782;48.984;8.548;2022-07-22T14:35:31;3.78;;;3.47;;
32297;SDS011;18782;48.984;8.548;2022-07-22T14:38:00;4.72;;;3.30;;
32297;SDS011;18782;48.984;8.548;2022-07-22T14:40:28;4.15;;;3.70;;
32297;SDS011;18782;48.984;8.548;2022-07-22T14:42:57;5.25;;;3.40;;
32297;SDS011;18782;48.984;8.548;2022-07-22T14:45:45;4.60;;;3.78;;
32297;SDS011;18782;48.984;8.548;2022-07-22T14:48:13;4.40;;;3.25;;
32297;SDS011;18782;48.984;8.548;2022-07-22T14:50:41;6.25;;;4.82;;
32297;SDS011;18782;48.984;8.548;2022-07-22T14:53:09;4.10;;;3.65;;
32297;SDS011;18782;48.984;8.548;2022-07-22T14:55:36;4.78;;;3.47;;
32297;SDS011;18782;48.984;8.548;2022-07-22T14:58:06;3.65;;;3.35;;
32297;SDS011;18782;48.984;8.548;2022-07-22T15:00:33;3.38;;;3.08;;
32297;SDS011;18782;48.984;8.548;2022-07-22T15:03:01;4.40;;;3.30;;
32297;SDS011;18782;48.984;8.548;2022-07-22T15:05:29;4.07;;;3.58;;
32297;SDS011;18782;48.984;8.548;2022-07-22T15:07:57;4.22;;;3.58;;
32297;SDS011;18782;48.984;8.548;2022-07-22T15:10:24;3.60;;;3.30;;
32297;SDS011;18782;48.984;8.548;2022-07-22T15:12:52;3.83;;;3.53;;
32297;SDS011;18782;48.984;8.548;2022-07-22T15:15:21;5.13;;;3.90;;
32297;SDS011;18782;48.984;8.548;2022-07-22T15:17:49;4.85;;;3.28;;
32297;SDS011;18782;48.984;8.548;2022-07-22T15:20:17;3.85;;;3.42;;